Terminal Aerodrome Forecast
Issued by NWS North Platte, NE

Home | Current Version | Previous Version | Graphics & Text | Print | Product List | Glossary On
Versions: 1 2 3 4 5 6 7 8 9 10 11 12 13 14
792
FTUS43 KLBF 261126
TAFVTN
TAF
KVTN 261126Z 2612/2712 04006KT P6SM SKC
     FM261400 06008KT P6SM SKC
     FM261800 06010KT P6SM FEW250
     FM270000 10008KT P6SM FEW250
     FM270600 15008KT P6SM SCT250
     FM270900 16012KT P6SM SCT250 WS015/18045KT=

USA.gov is the U.S. government's official web portal to all federal, state and local government web resources and services.